Norwalk, Ohio
Current Conditions -  °F | °C
As of 10:13 AM on Saturday 22 Nov 2014 (Local Time) from KPCW Reporting Station
Overcast Overcast  
Wind Chill: 29°   Ceiling: 4200
Heat Index: 37°   Visibility: 10mi
Dew Point: 36°   Wind: 13mph
Humidity: 93%   Direction: 200°SSW
Pressure: 30.12"   Gusts: NA
Location:  41.24°N, 82.61°W
Report Text: KPCW 221513Z AUTO 20011KT 10SM BKN042 OVC050 03/02 A3012 RMK AO2 $
Loading
Personal Weather Stations






























Interactive Weather Map New forecast layout! Learn more

10-Day Weather Forecast

Advertisements
Track Severe Weather on mobile